^^
Station Historical Data
 
Daily Summary for May 21, 2018 Units:  English    Metric   Both
« Previous Day
Next Day »
Daily Weekly Monthly Yearly Custom
  Current: High: Low: Average:
Temperature: 73.3 °F 79.2 °F 54.0 °F 64.6 °F
Dew Point: 40.9 °F 48.9 °F 38.4 °F 43.3 °F
Humidity: 31% 63% 30% 47%
Wind Speed: 0.0mph 8.0mph 0.0mph 0.1mph
Wind Gust: 0.0mph 13.0mph - -
WindCalm - - ESE
Pressure: 29.60 in 29.67 in 29.60 in -
Precipitation: 0.00 in      
Historical Graphs
 
 
Tabular Data for May 21, 2018
Time Temperature Dew Point Pressure Wind Wind Speed Wind Gust Humidity Rainfall Rate (Hourly) solar Conditions
00:04 59.7 °F 42.1 °F 29.67 in Calm     52% 0.00 in 0.00 W/m2
00:09 59.1 °F 42.0 °F 29.67 in Calm     53% 0.00 in 0.00 W/m2
00:14 58.5 °F 41.9 °F 29.67 in Calm     54% 0.00 in 0.00 W/m2
00:19 58.2 °F 42.1 °F 29.67 in Calm     55% 0.00 in 0.00 W/m2
00:24 58.0 °F 41.5 °F 29.67 in Calm     54% 0.00 in 0.00 W/m2
00:29 58.0 °F 42.4 °F 29.67 in Calm     56% 0.00 in 0.00 W/m2
00:34 57.8 °F 42.2 °F 29.67 in Calm     56% 0.00 in 0.00 W/m2
00:39 57.7 °F 42.6 °F 29.67 in Calm     57% 0.00 in 0.00 W/m2
00:44 57.7 °F 42.6 °F 29.67 in Calm     57% 0.00 in 0.00 W/m2
00:49 57.6 °F 43.0 °F 29.67 in Calm     58% 0.00 in 0.00 W/m2
00:54 57.5 °F 42.8 °F 29.67 in Calm     58% 0.00 in 0.00 W/m2
00:59 57.5 °F 43.3 °F 29.67 in Calm     59% 0.00 in 0.00 W/m2
01:04 57.5 °F 43.3 °F 29.67 in Calm     59% 0.00 in 0.00 W/m2
01:09 57.5 °F 43.3 °F 29.67 in Calm     59% 0.00 in 0.00 W/m2
01:14 57.6 °F 44.3 °F 29.67 in Calm     61% 0.00 in 0.00 W/m2
01:19 57.4 °F 43.2 °F 29.67 in Calm     59% 0.00 in 0.00 W/m2
01:24 57.5 °F 43.3 °F 29.67 in Calm     59% 0.00 in 0.00 W/m2
01:29 57.4 °F 43.6 °F 29.66 in Calm     60% 0.00 in 0.00 W/m2
01:34 57.3 °F 43.1 °F 29.67 in Calm     59% 0.00 in 0.00 W/m2
01:39 57.3 °F 43.1 °F 29.66 in Calm     59% 0.00 in 0.00 W/m2
01:44 57.2 °F 43.0 °F 29.66 in Calm     59% 0.00 in 0.00 W/m2
01:49 57.1 °F 42.5 °F 29.66 in Calm     58% 0.00 in 0.00 W/m2
01:54 57.0 °F 42.4 °F 29.66 in Calm     58% 0.00 in 0.00 W/m2
01:59 57.0 °F 41.9 °F 29.66 in Calm     57% 0.00 in 0.00 W/m2
02:04 56.9 °F 41.4 °F 29.66 in Calm     56% 0.00 in 0.00 W/m2
02:09 57.0 °F 41.0 °F 29.65 in Calm     55% 0.00 in 0.00 W/m2
02:14 57.2 °F 41.2 °F 29.65 in Calm     55% 0.00 in 0.00 W/m2
02:19 57.2 °F 41.2 °F 29.65 in Calm     55% 0.00 in 0.00 W/m2
02:24 57.1 °F 41.1 °F 29.65 in Calm     55% 0.00 in 0.00 W/m2
02:29 57.0 °F 41.0 °F 29.65 in Calm     55% 0.00 in 0.00 W/m2
02:34 56.9 °F 40.9 °F 29.65 in Calm     55% 0.00 in 0.00 W/m2
02:39 56.8 °F 40.8 °F 29.65 in Calm     55% 0.00 in 0.00 W/m2
02:44 56.8 °F 40.8 °F 29.65 in Calm     55% 0.00 in 0.00 W/m2
02:49 56.7 °F 40.7 °F 29.66 in Calm     55% 0.00 in 0.00 W/m2
02:54 56.6 °F 40.2 °F 29.66 in Calm     54% 0.00 in 0.00 W/m2
02:59 56.6 °F 40.2 °F 29.66 in Calm     54% 0.00 in 0.00 W/m2
03:04 56.7 °F 40.3 °F 29.66 in Calm     54% 0.00 in 0.00 W/m2
03:09 56.8 °F 40.3 °F 29.65 in Calm     54% 0.00 in 0.00 W/m2
03:14 56.9 °F 40.4 °F 29.65 in Calm     54% 0.00 in 0.00 W/m2
03:19 56.9 °F 40.0 °F 29.65 in Calm     53% 0.00 in 0.00 W/m2
03:24 56.9 °F 39.5 °F 29.65 in Calm     52% 0.00 in 0.00 W/m2
03:29 57.0 °F 39.1 °F 29.65 in Calm     51% 0.00 in 0.00 W/m2
03:34 57.1 °F 39.7 °F 29.65 in Calm     52% 0.00 in 0.00 W/m2
03:39 57.2 °F 39.2 °F 29.65 in Calm     51% 0.00 in 0.00 W/m2
03:44 57.4 °F 39.4 °F 29.65 in Calm     51% 0.00 in 0.00 W/m2
03:49 57.6 °F 39.1 °F 29.65 in Calm     50% 0.00 in 0.00 W/m2
03:54 58.2 °F 38.6 °F 29.65 in Calm     48% 0.00 in 0.00 W/m2
03:59 58.7 °F 38.5 °F 29.65 in Calm     47% 0.00 in 0.00 W/m2
04:04 59.1 °F 38.4 °F 29.65 in Calm     46% 0.00 in 0.00 W/m2
04:09 59.4 °F 38.6 °F 29.65 in Calm     46% 0.00 in 0.00 W/m2
04:14 59.5 °F 38.7 °F 29.65 in Calm     46% 0.00 in 0.00 W/m2
04:19 59.6 °F 38.8 °F 29.65 in Calm     46% 0.00 in 0.00 W/m2
04:24 59.6 °F 38.8 °F 29.64 in Calm     46% 0.00 in 0.00 W/m2
04:29 59.5 °F 40.3 °F 29.64 in Calm     49% 0.00 in 0.00 W/m2
04:34 59.1 °F 41.0 °F 29.64 in Calm     51% 0.00 in 0.00 W/m2
04:39 58.5 °F 41.9 °F 29.64 in Calm     54% 0.00 in 0.00 W/m2
04:45 58.0 °F 41.0 °F 29.64 in Calm     53% 0.00 in 0.00 W/m2
04:50 57.3 °F 39.8 °F 29.64 in Calm     52% 0.00 in 0.00 W/m2
04:55 57.0 °F 40.1 °F 29.64 in Calm     53% 0.00 in 0.00 W/m2
05:00 56.7 °F 40.3 °F 29.64 in Calm     54% 0.00 in 0.00 W/m2
05:05 56.3 °F 40.4 °F 29.64 in Calm     55% 0.00 in 0.00 W/m2
05:10 56.0 °F 40.1 °F 29.64 in Calm     55% 0.00 in 0.00 W/m2
05:15 55.8 °F 39.9 °F 29.64 in Calm     55% 0.00 in 0.00 W/m2
05:20 55.5 °F 40.1 °F 29.64 in Calm     56% 0.00 in 0.00 W/m2
05:25 55.1 °F 40.6 °F 29.64 in Calm     58% 0.00 in 0.00 W/m2
05:30 55.0 °F 40.1 °F 29.65 in Calm     57% 0.00 in 0.00 W/m2
05:35 54.9 °F 40.0 °F 29.65 in Calm     57% 0.00 in 0.00 W/m2
05:40 54.8 °F 40.8 °F 29.65 in Calm     59% 0.00 in 0.00 W/m2
05:45 54.5 °F 40.5 °F 29.65 in Calm     59% 0.00 in 0.00 W/m2
05:50 54.2 °F 39.8 °F 29.65 in Calm     58% 0.00 in 0.00 W/m2
05:55 54.4 °F 39.5 °F 29.65 in Calm     57% 0.00 in 0.00 W/m2
06:00 54.5 °F 39.6 °F 29.65 in Calm     57% 0.00 in 0.00 W/m2
06:05 54.5 °F 40.0 °F 29.65 in Calm     58% 0.00 in 0.00 W/m2
06:10 54.5 °F 40.0 °F 29.65 in Calm     58% 0.00 in 5.00 W/m2
06:15 54.6 °F 39.7 °F 29.65 in Calm     57% 0.00 in 5.00 W/m2
06:20 54.7 °F 40.2 °F 29.66 in Calm     58% 0.00 in 9.00 W/m2
06:25 54.7 °F 40.7 °F 29.66 in Calm     59% 0.00 in 11.00 W/m2
06:30 54.6 °F 40.1 °F 29.66 in Calm     58% 0.00 in 12.00 W/m2
06:35 54.4 °F 40.4 °F 29.66 in Calm     59% 0.00 in 16.00 W/m2
06:40 54.2 °F 40.2 °F 29.66 in Calm     59% 0.00 in 19.00 W/m2
06:45 54.1 °F 40.5 °F 29.66 in Calm     60% 0.00 in 21.00 W/m2
06:50 54.1 °F 41.0 °F 29.67 in Calm     61% 0.00 in 23.00 W/m2
06:55 54.1 °F 41.0 °F 29.67 in Calm     61% 0.00 in 26.00 W/m2
07:00 54.1 °F 41.0 °F 29.67 in Calm     61% 0.00 in 28.00 W/m2
07:05 54.0 °F 40.9 °F 29.67 in Calm     61% 0.00 in 83.00 W/m2
07:10 54.1 °F 41.4 °F 29.67 in Calm     62% 0.00 in 98.00 W/m2
07:15 54.2 °F 41.9 °F 29.67 in Calm     63% 0.00 in 114.00 W/m2
07:20 54.7 °F 42.4 °F 29.67 in Calm     63% 0.00 in 132.00 W/m2
07:25 55.0 °F 42.2 °F 29.67 in Calm     62% 0.00 in 146.00 W/m2
07:30 55.3 °F 42.1 °F 29.67 in Calm     61% 0.00 in 165.00 W/m2
07:35 55.7 °F 42.9 °F 29.67 in Calm     62% 0.00 in 185.00 W/m2
07:40 56.2 °F 43.4 °F 29.67 in Calm     62% 0.00 in 204.00 W/m2
07:45 56.9 °F 43.2 °F 29.67 in Calm     60% 0.00 in 223.00 W/m2
07:50 57.8 °F 43.6 °F 29.67 in Calm     59% 0.00 in 243.00 W/m2
07:55 58.9 °F 44.2 °F 29.67 in Calm     58% 0.00 in 260.00 W/m2
08:00 59.7 °F 45.4 °F 29.67 in Calm     59% 0.00 in 278.00 W/m2
08:05 60.3 °F 45.5 °F 29.67 in Calm     58% 0.00 in 294.00 W/m2
08:10 60.8 °F 44.5 °F 29.67 in Calm     55% 0.00 in 311.00 W/m2
08:15 61.5 °F 45.2 °F 29.67 in Calm     55% 0.00 in 323.00 W/m2
08:20 62.1 °F 44.8 °F 29.67 in Calm     53% 0.00 in 343.00 W/m2
08:25 62.7 °F 44.8 °F 29.67 in Calm     52% 0.00 in 362.00 W/m2
08:31 63.3 °F 44.4 °F 29.67 in Calm     50% 0.00 in 378.00 W/m2
08:36 63.8 °F 44.8 °F 29.67 in Calm     50% 0.00 in 394.00 W/m2
08:41 64.3 °F 44.8 °F 29.67 in Calm     49% 0.00 in 406.00 W/m2
08:46 64.7 °F 44.6 °F 29.67 in Calm     48% 0.00 in 420.00 W/m2
08:51 65.0 °F 44.3 °F 29.67 in Calm     47% 0.00 in 443.00 W/m2
08:56 65.0 °F 44.3 °F 29.67 in Calm     47% 0.00 in 445.00 W/m2
09:01 65.0 °F 45.4 °F 29.67 in Calm     49% 0.00 in 468.00 W/m2
09:06 65.5 °F 45.3 °F 29.67 in Calm     48% 0.00 in 489.00 W/m2
09:11 66.2 °F 45.4 °F 29.67 in Calm     47% 0.00 in 504.00 W/m2
09:17 67.3 °F 45.8 °F 29.67 in Calm     46% 0.00 in 524.00 W/m2
09:22 67.9 °F 45.8 °F 29.67 in Calm     45% 0.00 in 540.00 W/m2
09:27 68.3 °F 46.2 °F 29.67 in Calm     45% 0.00 in 554.00 W/m2
09:32 68.5 °F 46.3 °F 29.67 in Calm   3.0 mph 45% 0.00 in 563.00 W/m2
09:37 68.7 °F 45.9 °F 29.67 in Calm     44% 0.00 in 559.00 W/m2
09:42 68.8 °F 45.4 °F 29.67 in Calm     43% 0.00 in 571.00 W/m2
09:47 68.9 °F 45.5 °F 29.67 in Calm   1.0 mph 43% 0.00 in 592.00 W/m2
09:53 69.1 °F 45.7 °F 29.67 in Calm     43% 0.00 in 598.00 W/m2
09:58 69.4 °F 46.0 °F 29.67 in Calm     43% 0.00 in 629.00 W/m2
10:03 69.6 °F 45.5 °F 29.67 in Calm     42% 0.00 in 656.00 W/m2
10:08 70.0 °F 47.1 °F 29.67 in Calm     44% 0.00 in 675.00 W/m2
10:13 70.4 °F 45.6 °F 29.67 in Calm     41% 0.00 in 679.00 W/m2
10:18 70.6 °F 45.1 °F 29.67 in Calm     40% 0.00 in 707.00 W/m2
10:23 70.7 °F 44.5 °F 29.67 in Calm     39% 0.00 in 724.00 W/m2
10:28 70.9 °F 44.0 °F 29.67 in Calm     38% 0.00 in 729.00 W/m2
10:34 70.9 °F 43.4 °F 29.67 in Calm     37% 0.00 in 592.00 W/m2
10:39 71.0 °F 44.8 °F 29.67 in Calm   3.0 mph 39% 0.00 in 719.00 W/m2
10:44 71.2 °F 44.3 °F 29.67 in Calm     38% 0.00 in 749.00 W/m2
10:49 71.5 °F 47.8 °F 29.67 in Calm     43% 0.00 in 791.00 W/m2
10:54 72.0 °F 47.7 °F 29.67 in Calm     42% 0.00 in 731.00 W/m2
10:59 72.2 °F 46.6 °F 29.67 in Calm     40% 0.00 in 789.00 W/m2
11:04 72.7 °F 47.7 °F 29.67 in Calm     41% 0.00 in 816.00 W/m2
11:09 73.0 °F 46.6 °F 29.67 in Calm     39% 0.00 in 824.00 W/m2
11:14 73.4 °F 46.3 °F 29.67 in Calm   1.0 mph 38% 0.00 in 752.00 W/m2
11:19 73.1 °F 47.4 °F 29.67 in Calm   1.0 mph 40% 0.00 in 754.00 W/m2
11:24 73.0 °F 47.9 °F 29.67 in Calm     41% 0.00 in 849.00 W/m2
11:29 73.2 °F 46.1 °F 29.67 in Calm     38% 0.00 in 788.00 W/m2
11:34 72.8 °F 46.4 °F 29.67 in Calm   3.0 mph 39% 0.00 in 831.00 W/m2
11:39 73.1 °F 46.7 °F 29.67 in Calm   3.0 mph 39% 0.00 in 861.00 W/m2
11:44 73.2 °F 46.8 °F 29.67 in Calm     39% 0.00 in 851.00 W/m2
11:49 73.3 °F 46.2 °F 29.66 in Calm     38% 0.00 in 912.00 W/m2
11:54 73.3 °F 46.2 °F 29.67 in Calm     38% 0.00 in 928.00 W/m2
12:00 74.2 °F 48.3 °F 29.66 in Calm     40% 0.00 in 861.00 W/m2
12:05 74.4 °F 48.5 °F 29.66 in Calm   3.0 mph 40% 0.00 in 921.00 W/m2
12:10 75.5 °F 48.1 °F 29.66 in Calm   1.0 mph 38% 0.00 in 921.00 W/m2
12:15 75.6 °F 47.5 °F 29.66 in Calm   1.0 mph 37% 0.00 in 886.00 W/m2
12:21 75.8 °F 47.7 °F 29.66 in Calm   1.0 mph 37% 0.00 in 793.00 W/m2
12:26 75.7 °F 46.9 °F 29.66 in Calm     36% 0.00 in 800.00 W/m2
12:31 75.5 °F 47.4 °F 29.66 in Calm     37% 0.00 in 779.00 W/m2
12:36 75.7 °F 48.3 °F 29.66 in Calm   1.0 mph 38% 0.00 in 735.00 W/m2
12:41 75.7 °F 47.6 °F 29.66 in Calm     37% 0.00 in 698.00 W/m2
12:46 75.7 °F 46.9 °F 29.66 in Calm     36% 0.00 in 555.00 W/m2
12:51 75.6 °F 48.2 °F 29.65 in Calm     38% 0.00 in 722.00 W/m2
12:56 75.6 °F 48.9 °F 29.65 in Calm     39% 0.00 in 840.00 W/m2
13:01 76.1 °F 48.7 °F 29.65 in Calm     38% 0.00 in 1025.00 W/m2
13:06 76.7 °F 47.8 °F 29.65 in Calm   1.0 mph 36% 0.00 in 967.00 W/m2
13:11 77.2 °F 47.5 °F 29.65 in Calm     35% 0.00 in 1002.00 W/m2
13:16 77.6 °F 47.8 °F 29.65 in Calm   1.0 mph 35% 0.00 in 967.00 W/m2
13:21 78.0 °F 48.2 °F 29.65 in Calm   1.0 mph 35% 0.00 in 1051.00 W/m2
13:27 78.6 °F 47.1 °F 29.64 in Calm     33% 0.00 in 1067.00 W/m2
13:32 78.6 °F 46.3 °F 29.64 in Calm     32% 0.00 in 1004.00 W/m2
13:37 79.1 °F 46.7 °F 29.64 in Calm     32% 0.00 in 744.00 W/m2
13:42 79.1 °F 45.9 °F 29.64 in Calm     31% 0.00 in 596.00 W/m2
13:47 79.0 °F 46.7 °F 29.64 in Calm     32% 0.00 in 791.00 W/m2
13:52 79.2 °F 45.1 °F 29.64 in Calm   1.0 mph 30% 0.00 in 568.00 W/m2
13:57 79.0 °F 45.0 °F 29.64 in Calm     30% 0.00 in 548.00 W/m2
14:02 78.9 °F 44.9 °F 29.63 in Calm     30% 0.00 in 459.00 W/m2
14:07 78.9 °F 44.9 °F 29.63 in Calm   1.0 mph 30% 0.00 in 487.00 W/m2
14:12 78.7 °F 44.7 °F 29.63 in Calm     30% 0.00 in 499.00 W/m2
14:18 78.4 °F 44.4 °F 29.63 in Calm     30% 0.00 in 561.00 W/m2
14:23 78.3 °F 46.0 °F 29.63 in Calm   1.0 mph 32% 0.00 in 853.00 W/m2
14:28 78.0 °F 47.4 °F 29.62 in Calm   1.0 mph 34% 0.00 in 777.00 W/m2
14:33 78.2 °F 48.3 °F 29.62 in Calm   1.0 mph 35% 0.00 in 598.00 W/m2
14:38 78.6 °F 47.1 °F 29.62 in Calm   1.0 mph 33% 0.00 in 571.00 W/m2
14:43 78.7 °F 48.8 °F 29.63 in Calm   1.0 mph 35% 0.00 in 450.00 W/m2
14:48 78.4 °F 47.7 °F 29.63 in Calm   1.0 mph 34% 0.00 in 705.00 W/m2
14:53 78.1 °F 47.5 °F 29.63 in Calm   1.0 mph 34% 0.00 in 480.00 W/m2
14:58 77.0 °F 46.5 °F 29.63 in Calm   5.0 mph 34% 0.00 in 849.00 W/m2
15:03 75.4 °F 43.5 °F 29.62 in SSE 4.0 mph 7.0 mph 32% 0.00 in 534.00 W/m2
15:08 73.8 °F 41.3 °F 29.62 in SE 3.0 mph 7.0 mph 31% 0.00 in 478.00 W/m2
15:13 72.5 °F 39.3 °F 29.62 in Calm   10.0 mph 30% 0.00 in 483.00 W/m2
15:18 72.2 °F 39.9 °F 29.62 in Calm   8.0 mph 31% 0.00 in 508.00 W/m2
15:23 71.7 °F 41.1 °F 29.62 in East 8.0 mph 10.0 mph 33% 0.00 in 459.00 W/m2
15:28 70.8 °F 39.5 °F 29.62 in East 5.0 mph 13.0 mph 32% 0.00 in 452.00 W/m2
15:33 70.3 °F 39.9 °F 29.62 in Calm   8.0 mph 33% 0.00 in 420.00 W/m2
15:38 70.4 °F 40.7 °F 29.62 in East 2.0 mph 6.0 mph 34% 0.00 in 439.00 W/m2
15:44 70.5 °F 40.8 °F 29.62 in Calm   6.0 mph 34% 0.00 in 413.00 W/m2
15:49 70.8 °F 39.5 °F 29.62 in Calm   5.0 mph 32% 0.00 in 527.00 W/m2
15:54 71.4 °F 40.8 °F 29.61 in Calm   5.0 mph 33% 0.00 in 459.00 W/m2
15:59 71.8 °F 39.6 °F 29.61 in Calm   1.0 mph 31% 0.00 in 503.00 W/m2
16:04 72.1 °F 39.8 °F 29.60 in Calm     31% 0.00 in 441.00 W/m2
16:09 72.8 °F 40.4 °F 29.60 in Calm     31% 0.00 in 499.00 W/m2
16:14 73.3 °F 40.9 °F 29.60 in Calm     31% 0.00 in 527.00 W/m2
Chelsea Cove, Bountiful, UT
Compliments of Weather Underground - 1.5 mb